Shabab Oman 2 — A4LB — position and weather

sailwx.info

Track history (hours):
 
Tides and Currents Weather Stations Pressure Air Temp Water Temp Dewpoint Dewpoint Depression Visibility Wind Speed Wind Dir Waves Ship Positions

Shabab Oman 2

Last reported at 2019-Aug-22 09:29 UTC. Time now 2019-Aug-22 09:50 UTC.
Position N 49°13' W 005°00'.

Length 86 m; draft 5.4 m.

Type: Sailing vessel. MMSI: 461000441.

Date/timePositionNaut miles runAvg speedWind from/ knotsBaromVisibWave heightAir tempDewpointWater temp
2019-Aug-22 09:29N 49°13' W 005°00'6 7.6
2019-Aug-22 08:40N 49°16' W 004°52'4 7.7
2019-Aug-22 08:10N 49°18' W 004°47'1 7.7
2019-Aug-22 08:00N 49°19' W 004°45'4 7.6
2019-Aug-22 07:29N 49°21' W 004°40'4 7.2
2019-Aug-22 06:56N 49°23' W 004°35'3 7.0
2019-Aug-22 06:30N 49°24' W 004°31'4 7.1
2019-Aug-22 05:54N 49°26' W 004°25'3 7.2
2019-Aug-22 05:28N 49°28' W 004°21'4 7.7
2019-Aug-22 04:59N 49°30' W 004°16'6 7.9
2019-Aug-22 04:17N 49°33' W 004°09'2 7.9
2019-Aug-22 03:58N 49°34' W 004°06'4 8.0
2019-Aug-22 03:30N 49°36' W 004°01'4 8.0
2019-Aug-22 03:00N 49°38' W 003°56'4 8.2
2019-Aug-22 02:30N 49°40' W 003°50'4 8.1
2019-Aug-22 01:58N 49°43' W 003°45'4 8.2
2019-Aug-22 01:30N 49°45' W 003°40'4 8.4
2019-Aug-22 00:59N 49°46' W 003°33'4 8.1
2019-Aug-22 00:30N 49°48' W 003°28'4 7.7
2019-Aug-22 00:00N 49°50' W 003°23'4 7.5
2019-Aug-21 23:28N 49°53' W 003°18'3 7.2
2019-Aug-21 23:00N 49°54' W 003°13'4 7.3
2019-Aug-21 22:30N 49°56' W 003°08'4 7.1
2019-Aug-21 22:00N 49°58' W 003°04'3 7.0
2019-Aug-21 21:30N 49°60' W 002°59'4 6.9
2019-Aug-21 20:59N 50°01' W 002°54'3 6.9
2019-Aug-21 20:30N 50°02' W 002°49'4 7.1
2019-Aug-21 20:00N 50°03' W 002°43'3 6.9
2019-Aug-21 19:30N 50°04' W 002°38'4 7.3
2019-Aug-21 19:00N 50°05' W 002°33'4 7.8
2019-Aug-21 18:30N 50°06' W 002°27'4 8.3
2019-Aug-21 18:00N 50°07' W 002°21'5 8.8
2019-Aug-21 17:27N 50°08' W 002°14'19 8.7
2019-Aug-21 15:19N 50°14' W 001°46'14 8.0
2019-Aug-21 13:33N 50°18' W 001°25'0 8.1
2019-Aug-21 13:31N 50°18' W 001°24'5 7.7
2019-Aug-21 12:49N 50°19' W 001°16'18 7.1
2019-Aug-21 10:21N 50°34' W 001°02'2 6.8
2019-Aug-21 10:00N 50°37' W 001°00'4 7.1
2019-Aug-21 09:30N 50°40' W 000°58'4 7.4
2019-Aug-21 09:00N 50°43' W 001°01'4 8.9
2019-Aug-21 08:30N 50°46' W 001°06'2 3.5
2019-Aug-21 08:00N 50°48' W 001°07'0 0.0
2019-Aug-21 07:30N 50°48' W 001°07'0 0.0
2019-Aug-21 07:00N 50°48' W 001°07'0 0.0
2019-Aug-21 06:30N 50°48' W 001°07'0 0.0
2019-Aug-21 06:00N 50°48' W 001°07'0 0.0
2019-Aug-21 05:30N 50°48' W 001°07'0 0.0
2019-Aug-21 05:00N 50°48' W 001°07'0 0.0
2019-Aug-21 04:30N 50°48' W 001°07'0 0.0
2019-Aug-21 04:00N 50°48' W 001°07'0 0.0
2019-Aug-21 03:30N 50°48' W 001°07'0 0.0
2019-Aug-21 03:00N 50°48' W 001°07'0 0.0
2019-Aug-21 02:30N 50°48' W 001°07'0 0.0
2019-Aug-21 02:00N 50°48' W 001°07'0 0.0
2019-Aug-21 01:30N 50°48' W 001°07'0 0.0
2019-Aug-21 01:00N 50°48' W 001°07'0 0.0
2019-Aug-21 00:30N 50°48' W 001°07'0 0.0
2019-Aug-21 00:00N 50°48' W 001°07'0 0.0
2019-Aug-20 23:30N 50°48' W 001°07'0 0.0
2019-Aug-20 23:00N 50°48' W 001°07'0 0.0
2019-Aug-20 22:30N 50°48' W 001°07'0 0.0
2019-Aug-20 22:00N 50°48' W 001°07'0 0.0
2019-Aug-20 21:30N 50°48' W 001°07'0 0.0
2019-Aug-20 21:00N 50°48' W 001°07'0 0.0
2019-Aug-20 20:30N 50°48' W 001°07'0 0.0
2019-Aug-20 20:00N 50°48' W 001°07'0 0.0
2019-Aug-20 19:30N 50°48' W 001°07'0 0.0
2019-Aug-20 19:00N 50°48' W 001°07'0 0.0
2019-Aug-20 18:27N 50°48' W 001°07'0 0.0
2019-Aug-20 18:00N 50°48' W 001°07'0 0.0
2019-Aug-20 17:30N 50°48' W 001°07'0 0.0
2019-Aug-20 17:00N 50°48' W 001°07'0 0.0
2019-Aug-20 16:30N 50°48' W 001°07'0 0.0
2019-Aug-20 16:00N 50°48' W 001°07'0 0.0
2019-Aug-20 15:30N 50°48' W 001°07'0 0.0
2019-Aug-20 15:00N 50°48' W 001°07'0 0.0
2019-Aug-20 14:30N 50°48' W 001°07'0 0.0
2019-Aug-20 14:00N 50°48' W 001°07'0 0.0
2019-Aug-20 13:30N 50°48' W 001°07'0 0.0
2019-Aug-20 13:00N 50°48' W 001°07'0 0.0
2019-Aug-20 12:30N 50°48' W 001°07'0 0.0
2019-Aug-20 12:00N 50°48' W 001°07'0 0.0
2019-Aug-20 11:30N 50°48' W 001°07'0 0.0
2019-Aug-20 11:00N 50°48' W 001°07'0 0.0
2019-Aug-20 10:30N 50°48' W 001°07'0 0.0
2019-Aug-20 10:00N 50°48' W 001°07'0 0.0
2019-Aug-20 09:30N 50°48' W 001°07'0 0.0
2019-Aug-20 09:00N 50°48' W 001°07'0 0.0
2019-Aug-20 08:30N 50°48' W 001°07'0 0.0
2019-Aug-20 08:00N 50°48' W 001°07'0 0.0
2019-Aug-20 07:30N 50°48' W 001°07'0 0.0
2019-Aug-20 07:00N 50°48' W 001°07'0 0.0
2019-Aug-20 06:30N 50°48' W 001°07'0 0.0
2019-Aug-20 06:00N 50°48' W 001°07'0 0.0
2019-Aug-20 05:30N 50°48' W 001°07'0 0.0
2019-Aug-20 05:00N 50°48' W 001°07'0 0.0
2019-Aug-20 04:30N 50°48' W 001°07'0 0.0
2019-Aug-20 04:00N 50°48' W 001°07'0 0.0
2019-Aug-20 03:30N 50°48' W 001°07'0 0.0
2019-Aug-20 03:00N 50°48' W 001°07'0 0.0
2019-Aug-20 02:30N 50°48' W 001°07'0 0.0
2019-Aug-20 02:00N 50°48' W 001°07'0 0.0
2019-Aug-20 01:30N 50°48' W 001°07'0 0.0
2019-Aug-20 01:00N 50°48' W 001°07'0 0.0
2019-Aug-20 00:30N 50°48' W 001°07'0 0.0
2019-Aug-20 00:00N 50°48' W 001°07'0 0.0
2019-Aug-19 23:30N 50°48' W 001°07'0 0.0
2019-Aug-19 22:59N 50°48' W 001°07'0 0.0
2019-Aug-19 22:30N 50°48' W 001°07'0 0.0
2019-Aug-19 22:00N 50°48' W 001°07'0 0.0
2019-Aug-19 21:30N 50°48' W 001°07'0 0.0
2019-Aug-19 21:00N 50°48' W 001°07'0 0.0
2019-Aug-19 20:30N 50°48' W 001°07'0 0.0
2019-Aug-19 20:00N 50°48' W 001°07'0 0.0
2019-Aug-19 19:30N 50°48' W 001°07'0 0.0
2019-Aug-19 19:00N 50°48' W 001°07'0 0.0
2019-Aug-19 18:30N 50°48' W 001°07'0 0.0
2019-Aug-19 17:59N 50°48' W 001°07'0 0.0
2019-Aug-19 17:30N 50°48' W 001°07'0 0.0
2019-Aug-19 17:00N 50°48' W 001°07'0 0.0
2019-Aug-19 16:30N 50°48' W 001°07'0 0.0
2019-Aug-19 16:00N 50°48' W 001°07'0 0.0
2019-Aug-19 15:30N 50°48' W 001°07'0 0.0
2019-Aug-19 14:59N 50°48' W 001°07'0 0.0
2019-Aug-19 14:30N 50°48' W 001°07'0 0.0
2019-Aug-19 14:00N 50°48' W 001°07'0 0.0
2019-Aug-19 13:30N 50°48' W 001°07'0 0.0
2019-Aug-19 13:00N 50°48' W 001°07'0 0.0
2019-Aug-19 12:30N 50°48' W 001°07'0 0.0
2019-Aug-19 11:59N 50°48' W 001°07'0 0.0
2019-Aug-19 11:30N 50°48' W 001°07'0 0.0
2019-Aug-19 10:59N 50°48' W 001°07'0 0.0
2019-Aug-19 10:29N 50°48' W 001°07'0 0.0
2019-Aug-19 09:59N 50°48' W 001°07'0 0.0
2019-Aug-19 09:30N 50°48' W 001°07'0 0.0
2019-Aug-19 08:59N 50°48' W 001°07'0 0.0
2019-Aug-19 08:30N 50°48' W 001°07'0 0.0
2019-Aug-19 08:00N 50°48' W 001°07'0 0.0
2019-Aug-19 07:30N 50°48' W 001°07'0 0.0
2019-Aug-19 07:00N 50°48' W 001°07'0 0.0
2019-Aug-19 06:30N 50°48' W 001°07'0 0.0
2019-Aug-19 05:59N 50°48' W 001°07'0 0.0
2019-Aug-19 05:30N 50°48' W 001°07'0 0.0
2019-Aug-19 04:59N 50°48' W 001°07'0 0.0
2019-Aug-19 04:29N 50°48' W 001°07'0 0.0
2019-Aug-19 04:00N 50°48' W 001°07'0 0.0
2019-Aug-19 03:29N 50°48' W 001°07'0 0.0
2019-Aug-19 02:59N 50°48' W 001°07'0 0.0
2019-Aug-19 02:29N 50°48' W 001°07'0 0.0
2019-Aug-19 01:59N 50°48' W 001°07'0 0.0
2019-Aug-19 01:30N 50°48' W 001°07'0 0.0
2019-Aug-19 00:59N 50°48' W 001°07'0 0.0
2019-Aug-19 00:29N 50°48' W 001°07'0 0.0
2019-Aug-18 23:59N 50°48' W 001°07'0 0.0
2019-Aug-18 23:29N 50°48' W 001°07'0 0.0
2019-Aug-18 22:59N 50°48' W 001°07'0 0.0
2019-Aug-18 22:29N 50°48' W 001°07'0 0.0
2019-Aug-18 21:59N 50°48' W 001°07'0 0.0
2019-Aug-18 21:29N 50°48' W 001°07'0 0.0
2019-Aug-18 20:59N 50°48' W 001°07'0 0.0
2019-Aug-18 20:29N 50°48' W 001°07'0 0.0
2019-Aug-18 19:59N 50°48' W 001°07'0 0.0
2019-Aug-18 19:29N 50°48' W 001°07'0 0.0
2019-Aug-18 18:59N 50°48' W 001°07'0 0.0
2019-Aug-18 18:29N 50°48' W 001°07'0 0.0
2019-Aug-18 17:59N 50°48' W 001°07'0 0.0
2019-Aug-18 17:29N 50°48' W 001°07'0 0.0
2019-Aug-18 16:59N 50°48' W 001°07'0 0.0
2019-Aug-18 16:29N 50°48' W 001°07'0 0.0
2019-Aug-18 15:59N 50°48' W 001°07'0 0.0
2019-Aug-18 15:29N 50°48' W 001°07'0 0.0
2019-Aug-18 14:59N 50°48' W 001°07'0 0.0
2019-Aug-18 14:29N 50°48' W 001°07'0 0.0
2019-Aug-18 13:59N 50°48' W 001°07'0 0.0
2019-Aug-18 13:29N 50°48' W 001°07'0 0.0
2019-Aug-18 12:59N 50°48' W 001°07'0 0.0
2019-Aug-18 12:29N 50°48' W 001°07'0 0.0
2019-Aug-18 11:59N 50°48' W 001°07'0 0.0
2019-Aug-18 11:26N 50°48' W 001°07'0 0.0
2019-Aug-18 10:59N 50°48' W 001°07'0 0.0
2019-Aug-18 10:29N 50°48' W 001°07'0 0.0
2019-Aug-18 09:59N 50°48' W 001°07'0 0.0
2019-Aug-18 09:29N 50°48' W 001°07'0 0.0
2019-Aug-18 08:59N 50°48' W 001°07'0 0.0
2019-Aug-18 08:29N 50°48' W 001°07'0 0.0
2019-Aug-18 07:59N 50°48' W 001°07'0 0.0
2019-Aug-18 06:59N 50°48' W 001°07'0 0.0
2019-Aug-18 06:29N 50°48' W 001°07'0 0.0
2019-Aug-18 05:59N 50°48' W 001°07'0 0.0
2019-Aug-18 05:29N 50°48' W 001°07'0 0.0
2019-Aug-18 04:59N 50°48' W 001°07'0 0.0
2019-Aug-18 04:26N 50°48' W 001°07'0 0.0
2019-Aug-18 03:59N 50°48' W 001°07'0 0.0
2019-Aug-18 03:29N 50°48' W 001°07'0 0.0
2019-Aug-18 02:59N 50°48' W 001°07'0 0.0
2019-Aug-18 02:29N 50°48' W 001°07'0 0.0
2019-Aug-18 01:59N 50°48' W 001°07'0 0.0
2019-Aug-18 01:29N 50°48' W 001°07'0 0.0
2019-Aug-18 00:59N 50°48' W 001°07'0 0.0
2019-Aug-18 00:29N 50°48' W 001°07'0 0.0
2019-Aug-17 23:59N 50°48' W 001°07'0 0.0
2019-Aug-17 23:29N 50°48' W 001°07'0 0.0
2019-Aug-17 22:59N 50°48' W 001°07'0 0.0
2019-Aug-17 22:29N 50°48' W 001°07'0 0.0
2019-Aug-17 21:59N 50°48' W 001°07'0 0.0
2019-Aug-17 21:29N 50°48' W 001°07'0 0.0
2019-Aug-17 20:59N 50°48' W 001°07'0 0.0
2019-Aug-17 20:29N 50°48' W 001°07'0 0.0
2019-Aug-17 19:59N 50°48' W 001°07'0 0.0
2019-Aug-17 19:29N 50°48' W 001°07'0 0.0
2019-Aug-17 18:59N 50°48' W 001°07'0 0.0
2019-Aug-17 18:29N 50°48' W 001°07'0 0.0
2019-Aug-17 17:29N 50°48' W 001°07'0 0.0
2019-Aug-17 16:59N 50°48' W 001°07'0 0.0
2019-Aug-17 16:29N 50°48' W 001°07'0 0.0
2019-Aug-17 15:59N 50°48' W 001°07'0 0.0
2019-Aug-17 15:29N 50°48' W 001°07'0 0.0
2019-Aug-17 14:59N 50°48' W 001°07'0 0.0
2019-Aug-17 14:29N 50°48' W 001°07'0 0.0
2019-Aug-17 13:59N 50°48' W 001°07'0 0.0
2019-Aug-17 13:29N 50°48' W 001°07'0 0.0
2019-Aug-17 12:59N 50°48' W 001°07'0 0.0
2019-Aug-17 12:29N 50°48' W 001°07'0 0.0
2019-Aug-17 11:59N 50°48' W 001°07'0 0.0
2019-Aug-17 11:29N 50°48' W 001°07'0 0.0
2019-Aug-17 10:59N 50°48' W 001°07'0 0.0
2019-Aug-17 10:29N 50°48' W 001°07'0 0.0
2019-Aug-17 09:59N 50°48' W 001°07'0 0.0
2019-Aug-17 09:29N 50°48' W 001°07'0 0.0
2019-Aug-17 08:59N 50°48' W 001°07'0 0.0
2019-Aug-17 08:29N 50°48' W 001°07'0 0.0
2019-Aug-17 07:59N 50°48' W 001°07'0 0.0
2019-Aug-17 07:29N 50°48' W 001°07'0 0.0
2019-Aug-17 06:59N 50°48' W 001°07'0 0.0
2019-Aug-17 06:29N 50°48' W 001°07'0 0.0
2019-Aug-17 05:59N 50°48' W 001°07'0 0.0
2019-Aug-17 05:29N 50°48' W 001°07'0 0.0
2019-Aug-17 04:59N 50°48' W 001°07'0 0.0
2019-Aug-17 04:29N 50°48' W 001°07'0 0.0
2019-Aug-17 03:59N 50°48' W 001°07'0 0.0
2019-Aug-17 03:29N 50°48' W 001°07'0 0.0
2019-Aug-17 02:59N 50°48' W 001°07'0 0.0
2019-Aug-17 02:29N 50°48' W 001°07'0 0.0
2019-Aug-17 01:59N 50°48' W 001°07'0 0.0
2019-Aug-17 01:29N 50°48' W 001°07'0 0.0
2019-Aug-17 00:59N 50°48' W 001°07'0 0.0
2019-Aug-17 00:29N 50°48' W 001°07'0 0.0
2019-Aug-16 23:59N 50°48' W 001°07'0 0.0
2019-Aug-16 23:29N 50°48' W 001°07'0 0.0
2019-Aug-16 22:59N 50°48' W 001°07'0 0.0
2019-Aug-16 22:29N 50°48' W 001°07'0 0.0
2019-Aug-16 21:59N 50°48' W 001°07'0 0.0
2019-Aug-16 21:29N 50°48' W 001°07'0 0.0
2019-Aug-16 20:59N 50°48' W 001°07'0 0.0
2019-Aug-16 20:29N 50°48' W 001°07'0 0.0
2019-Aug-16 19:59N 50°48' W 001°07'0 0.0
2019-Aug-16 19:29N 50°48' W 001°07'0 0.0
2019-Aug-16 18:59N 50°48' W 001°07'0 0.0
2019-Aug-16 18:29N 50°48' W 001°07'0 0.0
2019-Aug-16 17:59N 50°48' W 001°07'0 0.0
2019-Aug-16 17:29N 50°48' W 001°07'0 0.0
2019-Aug-16 16:59N 50°48' W 001°07'0 0.0
2019-Aug-16 16:29N 50°48' W 001°07'0 0.0
2019-Aug-16 15:59N 50°48' W 001°07'0 0.0
2019-Aug-16 15:29N 50°48' W 001°07'0 0.0
2019-Aug-16 14:59N 50°48' W 001°07'0 0.0
2019-Aug-16 14:29N 50°48' W 001°07'0 0.0
2019-Aug-16 13:59N 50°48' W 001°07'0 0.0
2019-Aug-16 13:29N 50°48' W 001°07'0 0.0
2019-Aug-16 12:59N 50°48' W 001°07'0 0.0
2019-Aug-16 12:29N 50°48' W 001°07'0 0.0
2019-Aug-16 11:59N 50°48' W 001°07'0 0.0
2019-Aug-16 11:29N 50°48' W 001°07'0 0.0
2019-Aug-16 10:59N 50°48' W 001°07'0 0.0
2019-Aug-16 10:29N 50°48' W 001°07'0 0.0
2019-Aug-16 09:59N 50°48' W 001°07'0 0.0
2019-Aug-16 09:29N 50°48' W 001°07'0 0.0
2019-Aug-16 08:59N 50°48' W 001°07'0 0.0
2019-Aug-16 08:29N 50°48' W 001°07'0 0.0
2019-Aug-16 07:59N 50°48' W 001°07'0 0.0
2019-Aug-16 07:29N 50°48' W 001°07'0 0.0
2019-Aug-16 06:59N 50°48' W 001°07'0 0.0
2019-Aug-16 06:29N 50°48' W 001°07'0 0.0
2019-Aug-16 05:59N 50°48' W 001°07'0 0.0
2019-Aug-16 05:29N 50°48' W 001°07'0 0.0
2019-Aug-16 04:59N 50°48' W 001°07'0 0.0
2019-Aug-16 04:29N 50°48' W 001°07'0 0.0
2019-Aug-16 03:59N 50°48' W 001°07'0 0.0
2019-Aug-16 03:29N 50°48' W 001°07'0 0.0
2019-Aug-16 02:59N 50°48' W 001°07'0 0.0
2019-Aug-16 02:29N 50°48' W 001°07'0 0.0
2019-Aug-16 01:59N 50°48' W 001°07'0 0.0
2019-Aug-16 01:29N 50°48' W 001°07'0 0.0
2019-Aug-16 00:59N 50°48' W 001°07'0 0.0
2019-Aug-16 00:29N 50°48' W 001°07'0 0.0
2019-Aug-15 23:59N 50°48' W 001°07'0 0.0
2019-Aug-15 23:29N 50°48' W 001°07'0 0.0
2019-Aug-15 22:59N 50°48' W 001°07'0 0.0
2019-Aug-15 22:29N 50°48' W 001°07'0 0.0
2019-Aug-15 21:59N 50°48' W 001°07'0 0.0
2019-Aug-15 21:29N 50°48' W 001°07'0 0.0
2019-Aug-15 20:59N 50°48' W 001°07'0 0.0
2019-Aug-15 20:29N 50°48' W 001°07'0 0.0
2019-Aug-15 19:59N 50°48' W 001°07'0 0.0
2019-Aug-15 19:29N 50°48' W 001°07'0 0.0
2019-Aug-15 18:59N 50°48' W 001°07'0 0.0
2019-Aug-15 18:29N 50°48' W 001°07'0 0.0
2019-Aug-15 17:59N 50°48' W 001°07'0 0.0
2019-Aug-15 17:29N 50°48' W 001°07'0 0.0
2019-Aug-15 16:59N 50°48' W 001°07'0 0.0
2019-Aug-15 16:29N 50°48' W 001°07'0 0.0
2019-Aug-15 15:59N 50°48' W 001°07'0 0.0
2019-Aug-15 15:29N 50°48' W 001°07'0 0.0
2019-Aug-15 14:59N 50°48' W 001°07'0 0.0
2019-Aug-15 14:29N 50°48' W 001°07'0 0.0
2019-Aug-15 13:59N 50°48' W 001°07'0 0.0
2019-Aug-15 13:29N 50°48' W 001°07'0 0.0
2019-Aug-15 12:59N 50°48' W 001°07'0 0.0
2019-Aug-15 12:29N 50°48' W 001°07'0 0.0
2019-Aug-15 11:59N 50°48' W 001°07'0 0.0
2019-Aug-15 11:29N 50°48' W 001°07'0 0.0
2019-Aug-15 10:59N 50°48' W 001°07'0 0.0
2019-Aug-15 10:29N 50°48' W 001°07'0 0.0
2019-Aug-15 09:59N 50°48' W 001°07'0 0.0
2019-Aug-15 09:29N 50°48' W 001°07'0 0.0
2019-Aug-15 08:59N 50°48' W 001°07'0 0.0
2019-Aug-15 08:29N 50°48' W 001°07'0 0.0
2019-Aug-15 07:59N 50°48' W 001°07'0 0.0
2019-Aug-15 07:29N 50°48' W 001°07'0 0.0
2019-Aug-15 06:59N 50°48' W 001°07'0 0.0
2019-Aug-15 06:29N 50°48' W 001°07'0 0.0
2019-Aug-15 05:59N 50°48' W 001°07'0 0.0
2019-Aug-15 05:29N 50°48' W 001°07'0 0.0
2019-Aug-15 04:59N 50°48' W 001°07'0 0.0
2019-Aug-15 04:29N 50°48' W 001°07'0 0.0
2019-Aug-15 03:59N 50°48' W 001°07'0 0.0
2019-Aug-15 03:29N 50°48' W 001°07'0 0.0
2019-Aug-15 02:59N 50°48' W 001°07'0 0.0
2019-Aug-15 02:29N 50°48' W 001°07'0 0.0
2019-Aug-15 01:59N 50°48' W 001°07'0 0.0
2019-Aug-15 01:29N 50°48' W 001°07'0 0.0
2019-Aug-15 00:59N 50°48' W 001°07'0 0.0
2019-Aug-15 00:29N 50°48' W 001°07'0 0.0
2019-Aug-14 23:59N 50°48' W 001°07'0 0.0
2019-Aug-14 23:29N 50°48' W 001°07'0 0.0
2019-Aug-14 22:59N 50°48' W 001°07'0 0.0
2019-Aug-14 22:29N 50°48' W 001°07'0 0.0
2019-Aug-14 21:59N 50°48' W 001°07'0 0.0
2019-Aug-14 21:29N 50°48' W 001°07'0 0.0
2019-Aug-14 20:59N 50°48' W 001°07'0 0.0
2019-Aug-14 20:29N 50°48' W 001°07'0 0.0
2019-Aug-14 19:59N 50°48' W 001°07'0 0.0
2019-Aug-14 19:29N 50°48' W 001°07'0 0.0
2019-Aug-14 18:59N 50°48' W 001°07'0 0.0
2019-Aug-14 18:29N 50°48' W 001°07'0 0.0
2019-Aug-14 17:59N 50°48' W 001°07'0 0.0
2019-Aug-14 17:29N 50°48' W 001°07'0 0.0
2019-Aug-14 16:59N 50°48' W 001°07'0 0.0
2019-Aug-14 16:29N 50°48' W 001°07'0 0.0
2019-Aug-14 15:59N 50°48' W 001°07'0 0.0
2019-Aug-14 15:29N 50°48' W 001°07'0 0.0
2019-Aug-14 14:59N 50°48' W 001°07'0 0.0
2019-Aug-14 14:29N 50°48' W 001°07'0 0.0
2019-Aug-14 13:59N 50°48' W 001°07'0 0.0
2019-Aug-14 13:29N 50°48' W 001°07'0 0.0
2019-Aug-14 12:59N 50°48' W 001°07'0 0.0
2019-Aug-14 12:29N 50°48' W 001°07'0 0.0
2019-Aug-14 11:59N 50°48' W 001°07'0 0.0
2019-Aug-14 11:29N 50°48' W 001°07'0 0.0
2019-Aug-14 10:59N 50°48' W 001°07'0 0.0
2019-Aug-14 10:29N 50°48' W 001°07'0 0.0
2019-Aug-14 09:59N 50°48' W 001°07'0 0.0
2019-Aug-14 09:29N 50°48' W 001°07'0 0.0
2019-Aug-14 08:59N 50°48' W 001°07'0 0.0
2019-Aug-14 08:29N 50°48' W 001°07'0 0.0
2019-Aug-14 07:59N 50°48' W 001°07'0 0.0
2019-Aug-14 07:29N 50°48' W 001°07'0 0.0
2019-Aug-14 06:59N 50°48' W 001°07'0 0.0
2019-Aug-14 06:29N 50°48' W 001°07'0 0.0
2019-Aug-14 05:59N 50°48' W 001°07'0 0.0
2019-Aug-14 05:29N 50°48' W 001°07'0 0.0
2019-Aug-14 04:59N 50°48' W 001°07'0 0.0
2019-Aug-14 04:29N 50°48' W 001°07'0 0.0
2019-Aug-14 03:59N 50°48' W 001°07'0 0.0
2019-Aug-14 03:29N 50°48' W 001°07'0 0.0
2019-Aug-14 02:59N 50°48' W 001°07'0 0.0
2019-Aug-14 02:29N 50°48' W 001°07'0 0.0
2019-Aug-14 01:59N 50°48' W 001°07'0 0.0
2019-Aug-14 01:29N 50°48' W 001°07'0 0.0
2019-Aug-14 00:59N 50°48' W 001°07'0 0.0
2019-Aug-14 00:29N 50°48' W 001°07'0 0.0
2019-Aug-13 23:59N 50°48' W 001°07'0 0.0
2019-Aug-13 23:29N 50°48' W 001°07'0 0.0
2019-Aug-13 22:59N 50°48' W 001°07'0 0.0
2019-Aug-13 22:29N 50°48' W 001°07'0 0.0
2019-Aug-13 21:59N 50°48' W 001°07'0 0.0
2019-Aug-13 21:29N 50°48' W 001°07'0 0.0
2019-Aug-13 20:59N 50°48' W 001°07'0 0.0
2019-Aug-13 20:29N 50°48' W 001°07'0 0.0
2019-Aug-13 19:59N 50°48' W 001°07'0 0.0
2019-Aug-13 19:29N 50°48' W 001°07'0 0.0
2019-Aug-13 18:59N 50°48' W 001°07'0 0.0
2019-Aug-13 18:29N 50°48' W 001°07'0 0.0
2019-Aug-13 17:59N 50°48' W 001°07'0 0.0
2019-Aug-13 17:29N 50°48' W 001°07'0 0.0
2019-Aug-13 16:59N 50°48' W 001°07'0 0.0
2019-Aug-13 16:29N 50°48' W 001°07'0 0.0
2019-Aug-13 15:59N 50°48' W 001°07'0 0.0
2019-Aug-13 15:29N 50°48' W 001°07'0 0.0
2019-Aug-13 14:59N 50°48' W 001°07'0 0.0
2019-Aug-13 14:29N 50°48' W 001°07'0 0.0
2019-Aug-13 13:59N 50°48' W 001°07'0 0.0
2019-Aug-13 13:29N 50°48' W 001°07'0 0.0
2019-Aug-13 12:59N 50°48' W 001°07'0 0.0
2019-Aug-13 12:29N 50°48' W 001°07'0 0.0
2019-Aug-13 11:59N 50°48' W 001°07'0 0.0
2019-Aug-13 11:29N 50°48' W 001°07'0 0.0
2019-Aug-13 10:59N 50°48' W 001°07'0 0.0
2019-Aug-13 10:29N 50°48' W 001°07'0 0.0
2019-Aug-13 09:59N 50°48' W 001°07'0 0.0
2019-Aug-13 09:29N 50°48' W 001°07'0 0.0
2019-Aug-13 08:59N 50°48' W 001°07'0 0.0
2019-Aug-13 08:29N 50°48' W 001°07'0 0.0
2019-Aug-13 07:59N 50°48' W 001°07'0 0.0
2019-Aug-13 07:29N 50°48' W 001°07'0 0.0
2019-Aug-13 06:59N 50°48' W 001°07'0 0.0
2019-Aug-13 06:29N 50°48' W 001°07'0 0.0
2019-Aug-13 05:59N 50°48' W 001°07'0 0.0
2019-Aug-13 05:29N 50°48' W 001°07'0 0.0
2019-Aug-13 04:59N 50°48' W 001°07'0 0.0
2019-Aug-13 04:29N 50°48' W 001°07'0 0.0
2019-Aug-13 03:59N 50°48' W 001°07'0 0.0
2019-Aug-13 03:29N 50°48' W 001°07'0 0.0
2019-Aug-13 02:59N 50°48' W 001°07'0 0.0
2019-Aug-13 02:29N 50°48' W 001°07'0 0.0
2019-Aug-13 01:29N 50°48' W 001°07'0 0.0
2019-Aug-13 00:59N 50°48' W 001°07'0 0.0
2019-Aug-13 00:29N 50°48' W 001°07'0 0.0
2019-Aug-12 23:59N 50°48' W 001°07'0 0.0
2019-Aug-12 23:29N 50°48' W 001°07'0 0.0
2019-Aug-12 22:59N 50°48' W 001°07'0 0.0
2019-Aug-12 22:29N 50°48' W 001°07'0 0.0
2019-Aug-12 21:59N 50°48' W 001°07'0 0.0
2019-Aug-12 21:29N 50°48' W 001°07'0 0.0
2019-Aug-12 20:59N 50°48' W 001°07'0 0.0
2019-Aug-12 20:29N 50°48' W 001°07'0 0.0
2019-Aug-12 19:59N 50°48' W 001°07'0 0.0
2019-Aug-12 19:29N 50°48' W 001°07'0 0.0
2019-Aug-12 18:59N 50°48' W 001°07'0 0.0
2019-Aug-12 18:29N 50°48' W 001°07'0 0.0
2019-Aug-12 17:59N 50°48' W 001°07'0 0.0
2019-Aug-12 17:29N 50°48' W 001°07'0 0.0
2019-Aug-12 16:59N 50°48' W 001°07'0 0.0
2019-Aug-12 16:29N 50°48' W 001°07'0 0.0
2019-Aug-12 15:59N 50°48' W 001°07'0 0.0
2019-Aug-12 15:29N 50°48' W 001°07'0 0.0
2019-Aug-12 14:59N 50°48' W 001°07'0 0.0
2019-Aug-12 14:29N 50°48' W 001°07'0 0.0
2019-Aug-12 13:59N 50°48' W 001°07'0 0.0
2019-Aug-12 13:29N 50°48' W 001°07'0 0.0
2019-Aug-12 12:59N 50°48' W 001°07'0 0.0
2019-Aug-12 12:29N 50°48' W 001°07'0 0.0
2019-Aug-12 11:59N 50°48' W 001°07'0 0.0
2019-Aug-12 11:29N 50°48' W 001°07'0 0.0
2019-Aug-12 10:59N 50°48' W 001°07'0 0.0
2019-Aug-12 10:29N 50°48' W 001°07'0 0.0
2019-Aug-12 09:59N 50°48' W 001°07'  
Track history (hours):
 
Tides and Currents Weather Stations Pressure Air Temp Water Temp Dewpoint Dewpoint Depression Visibility Wind Speed Wind Dir Waves Ship Positions

Shabab Oman 2

Last reported at 2019-Aug-22 09:29 UTC. Time now 2019-Aug-22 09:50 UTC.
Position N 49°13' W 005°00'.

Length 86 m; draft 5.4 m.

Type: Sailing vessel. MMSI: 461000441.

Date/timePositionNaut miles runAvg speedWind from/ knotsBaromVisibWave heightAir tempDewpointWater temp
2019-Aug-22 09:29N 49°13' W 005°00'6 7.6
2019-Aug-22 08:40N 49°16' W 004°52'4 7.7
2019-Aug-22 08:10N 49°18' W 004°47'1 7.7
2019-Aug-22 08:00N 49°19' W 004°45'4 7.6
2019-Aug-22 07:29N 49°21' W 004°40'4 7.2
2019-Aug-22 06:56N 49°23' W 004°35'3 7.0
2019-Aug-22 06:30N 49°24' W 004°31'4 7.1
2019-Aug-22 05:54N 49°26' W 004°25'3 7.2
2019-Aug-22 05:28N 49°28' W 004°21'4 7.7
2019-Aug-22 04:59N 49°30' W 004°16'6 7.9
2019-Aug-22 04:17N 49°33' W 004°09'2 7.9
2019-Aug-22 03:58N 49°34' W 004°06'4 8.0
2019-Aug-22 03:30N 49°36' W 004°01'4 8.0
2019-Aug-22 03:00N 49°38' W 003°56'4 8.2
2019-Aug-22 02:30N 49°40' W 003°50'4 8.1
2019-Aug-22 01:58N 49°43' W 003°45'4 8.2
2019-Aug-22 01:30N 49°45' W 003°40'4 8.4
2019-Aug-22 00:59N 49°46' W 003°33'4 8.1
2019-Aug-22 00:30N 49°48' W 003°28'4 7.7
2019-Aug-22 00:00N 49°50' W 003°23'4 7.5
2019-Aug-21 23:28N 49°53' W 003°18'3 7.2
2019-Aug-21 23:00N 49°54' W 003°13'4 7.3
2019-Aug-21 22:30N 49°56' W 003°08'4 7.1
2019-Aug-21 22:00N 49°58' W 003°04'3 7.0
2019-Aug-21 21:30N 49°60' W 002°59'4 6.9
2019-Aug-21 20:59N 50°01' W 002°54'3 6.9
2019-Aug-21 20:30N 50°02' W 002°49'4 7.1
2019-Aug-21 20:00N 50°03' W 002°43'3 6.9
2019-Aug-21 19:30N 50°04' W 002°38'4 7.3
2019-Aug-21 19:00N 50°05' W 002°33'4 7.8
2019-Aug-21 18:30N 50°06' W 002°27'4 8.3
2019-Aug-21 18:00N 50°07' W 002°21'5 8.8
2019-Aug-21 17:27N 50°08' W 002°14'19 8.7
2019-Aug-21 15:19N 50°14' W 001°46'14 8.0
2019-Aug-21 13:33N 50°18' W 001°25'0 8.1
2019-Aug-21 13:31N 50°18' W 001°24'5 7.7
2019-Aug-21 12:49N 50°19' W 001°16'18 7.1
2019-Aug-21 10:21N 50°34' W 001°02'2 6.8
2019-Aug-21 10:00N 50°37' W 001°00'4 7.1
2019-Aug-21 09:30N 50°40' W 000°58'4 7.4
2019-Aug-21 09:00N 50°43' W 001°01'4 8.9
2019-Aug-21 08:30N 50°46' W 001°06'2 3.5
2019-Aug-21 08:00N 50°48' W 001°07'0 0.0
2019-Aug-21 07:30N 50°48' W 001°07'0 0.0
2019-Aug-21 07:00N 50°48' W 001°07'0 0.0
2019-Aug-21 06:30N 50°48' W 001°07'0 0.0
2019-Aug-21 06:00N 50°48' W 001°07'0 0.0
2019-Aug-21 05:30N 50°48' W 001°07'0 0.0
2019-Aug-21 05:00N 50°48' W 001°07'0 0.0
2019-Aug-21 04:30N 50°48' W 001°07'0 0.0
2019-Aug-21 04:00N 50°48' W 001°07'0 0.0
2019-Aug-21 03:30N 50°48' W 001°07'0 0.0
2019-Aug-21 03:00N 50°48' W 001°07'0 0.0
2019-Aug-21 02:30N 50°48' W 001°07'0 0.0
2019-Aug-21 02:00N 50°48' W 001°07'0 0.0
2019-Aug-21 01:30N 50°48' W 001°07'0 0.0
2019-Aug-21 01:00N 50°48' W 001°07'0 0.0
2019-Aug-21 00:30N 50°48' W 001°07'0 0.0
2019-Aug-21 00:00N 50°48' W 001°07'0 0.0
2019-Aug-20 23:30N 50°48' W 001°07'0 0.0
2019-Aug-20 23:00N 50°48' W 001°07'0 0.0
2019-Aug-20 22:30N 50°48' W 001°07'0 0.0
2019-Aug-20 22:00N 50°48' W 001°07'0 0.0
2019-Aug-20 21:30N 50°48' W 001°07'0 0.0
2019-Aug-20 21:00N 50°48' W 001°07'0 0.0
2019-Aug-20 20:30N 50°48' W 001°07'0 0.0
2019-Aug-20 20:00N 50°48' W 001°07'0 0.0
2019-Aug-20 19:30N 50°48' W 001°07'0 0.0
2019-Aug-20 19:00N 50°48' W 001°07'0 0.0
2019-Aug-20 18:27N 50°48' W 001°07'0 0.0
2019-Aug-20 18:00N 50°48' W 001°07'0 0.0
2019-Aug-20 17:30N 50°48' W 001°07'0 0.0
2019-Aug-20 17:00N 50°48' W 001°07'0 0.0
2019-Aug-20 16:30N 50°48' W 001°07'0 0.0
2019-Aug-20 16:00N 50°48' W 001°07'0 0.0
2019-Aug-20 15:30N 50°48' W 001°07'0 0.0
2019-Aug-20 15:00N 50°48' W 001°07'0 0.0
2019-Aug-20 14:30N 50°48' W 001°07'0 0.0
2019-Aug-20 14:00N 50°48' W 001°07'0 0.0
2019-Aug-20 13:30N 50°48' W 001°07'0 0.0
2019-Aug-20 13:00N 50°48' W 001°07'0 0.0
2019-Aug-20 12:30N 50°48' W 001°07'0 0.0
2019-Aug-20 12:00N 50°48' W 001°07'0 0.0
2019-Aug-20 11:30N 50°48' W 001°07'0 0.0
2019-Aug-20 11:00N 50°48' W 001°07'0 0.0
2019-Aug-20 10:30N 50°48' W 001°07'0 0.0
2019-Aug-20 10:00N 50°48' W 001°07'0 0.0
2019-Aug-20 09:30N 50°48' W 001°07'0 0.0
2019-Aug-20 09:00N 50°48' W 001°07'0 0.0
2019-Aug-20 08:30N 50°48' W 001°07'0 0.0
2019-Aug-20 08:00N 50°48' W 001°07'0 0.0
2019-Aug-20 07:30N 50°48' W 001°07'0 0.0
2019-Aug-20 07:00N 50°48' W 001°07'0 0.0
2019-Aug-20 06:30N 50°48' W 001°07'0 0.0
2019-Aug-20 06:00N 50°48' W 001°07'0 0.0
2019-Aug-20 05:30N 50°48' W 001°07'0 0.0
2019-Aug-20 05:00N 50°48' W 001°07'0 0.0
2019-Aug-20 04:30N 50°48' W 001°07'0 0.0
2019-Aug-20 04:00N 50°48' W 001°07'0 0.0
2019-Aug-20 03:30N 50°48' W 001°07'0 0.0
2019-Aug-20 03:00N 50°48' W 001°07'0 0.0
2019-Aug-20 02:30N 50°48' W 001°07'0 0.0
2019-Aug-20 02:00N 50°48' W 001°07'0 0.0
2019-Aug-20 01:30N 50°48' W 001°07'0 0.0
2019-Aug-20 01:00N 50°48' W 001°07'0 0.0
2019-Aug-20 00:30N 50°48' W 001°07'0 0.0
2019-Aug-20 00:00N 50°48' W 001°07'0 0.0
2019-Aug-19 23:30N 50°48' W 001°07'0 0.0
2019-Aug-19 22:59N 50°48' W 001°07'0 0.0
2019-Aug-19 22:30N 50°48' W 001°07'0 0.0
2019-Aug-19 22:00N 50°48' W 001°07'0 0.0
2019-Aug-19 21:30N 50°48' W 001°07'0 0.0
2019-Aug-19 21:00N 50°48' W 001°07'0 0.0
2019-Aug-19 20:30N 50°48' W 001°07'0 0.0
2019-Aug-19 20:00N 50°48' W 001°07'0 0.0
2019-Aug-19 19:30N 50°48' W 001°07'0 0.0
2019-Aug-19 19:00N 50°48' W 001°07'0 0.0
2019-Aug-19 18:30N 50°48' W 001°07'0 0.0
2019-Aug-19 17:59N 50°48' W 001°07'0 0.0
2019-Aug-19 17:30N 50°48' W 001°07'0 0.0
2019-Aug-19 17:00N 50°48' W 001°07'0 0.0
2019-Aug-19 16:30N 50°48' W 001°07'0 0.0
2019-Aug-19 16:00N 50°48' W 001°07'0 0.0
2019-Aug-19 15:30N 50°48' W 001°07'0 0.0
2019-Aug-19 14:59N 50°48' W 001°07'0 0.0
2019-Aug-19 14:30N 50°48' W 001°07'0 0.0
2019-Aug-19 14:00N 50°48' W 001°07'0 0.0
2019-Aug-19 13:30N 50°48' W 001°07'0 0.0
2019-Aug-19 13:00N 50°48' W 001°07'0 0.0
2019-Aug-19 12:30N 50°48' W 001°07'0 0.0
2019-Aug-19 11:59N 50°48' W 001°07'0 0.0
2019-Aug-19 11:30N 50°48' W 001°07'0 0.0
2019-Aug-19 10:59N 50°48' W 001°07'0 0.0
2019-Aug-19 10:29N 50°48' W 001°07'0 0.0
2019-Aug-19 09:59N 50°48' W 001°07'0 0.0
2019-Aug-19 09:30N 50°48' W 001°07'0 0.0
2019-Aug-19 08:59N 50°48' W 001°07'0 0.0
2019-Aug-19 08:30N 50°48' W 001°07'0 0.0
2019-Aug-19 08:00N 50°48' W 001°07'0 0.0
2019-Aug-19 07:30N 50°48' W 001°07'0 0.0
2019-Aug-19 07:00N 50°48' W 001°07'0 0.0
2019-Aug-19 06:30N 50°48' W 001°07'0 0.0
2019-Aug-19 05:59N 50°48' W 001°07'0 0.0
2019-Aug-19 05:30N 50°48' W 001°07'0 0.0
2019-Aug-19 04:59N 50°48' W 001°07'0 0.0
2019-Aug-19 04:29N 50°48' W 001°07'0 0.0
2019-Aug-19 04:00N 50°48' W 001°07'0 0.0
2019-Aug-19 03:29N 50°48' W 001°07'0 0.0
2019-Aug-19 02:59N 50°48' W 001°07'0 0.0
2019-Aug-19 02:29N 50°48' W 001°07'0 0.0
2019-Aug-19 01:59N 50°48' W 001°07'0 0.0
2019-Aug-19 01:30N 50°48' W 001°07'0 0.0
2019-Aug-19 00:59N 50°48' W 001°07'0 0.0
2019-Aug-19 00:29N 50°48' W 001°07'0 0.0
2019-Aug-18 23:59N 50°48' W 001°07'0 0.0
2019-Aug-18 23:29N 50°48' W 001°07'0 0.0
2019-Aug-18 22:59N 50°48' W 001°07'0 0.0
2019-Aug-18 22:29N 50°48' W 001°07'0 0.0
2019-Aug-18 21:59N 50°48' W 001°07'0 0.0
2019-Aug-18 21:29N 50°48' W 001°07'0 0.0
2019-Aug-18 20:59N 50°48' W 001°07'0 0.0
2019-Aug-18 20:29N 50°48' W 001°07'0 0.0
2019-Aug-18 19:59N 50°48' W 001°07'0 0.0
2019-Aug-18 19:29N 50°48' W 001°07'0 0.0
2019-Aug-18 18:59N 50°48' W 001°07'0 0.0
2019-Aug-18 18:29N 50°48' W 001°07'0 0.0
2019-Aug-18 17:59N 50°48' W 001°07'0 0.0
2019-Aug-18 17:29N 50°48' W 001°07'0 0.0
2019-Aug-18 16:59N 50°48' W 001°07'0 0.0
2019-Aug-18 16:29N 50°48' W 001°07'0 0.0
2019-Aug-18 15:59N 50°48' W 001°07'0 0.0
2019-Aug-18 15:29N 50°48' W 001°07'0 0.0
2019-Aug-18 14:59N 50°48' W 001°07'0 0.0
2019-Aug-18 14:29N 50°48' W 001°07'0 0.0
2019-Aug-18 13:59N 50°48' W 001°07'0 0.0
2019-Aug-18 13:29N 50°48' W 001°07'0 0.0
2019-Aug-18 12:59N 50°48' W 001°07'0 0.0
2019-Aug-18 12:29N 50°48' W 001°07'0 0.0
2019-Aug-18 11:59N 50°48' W 001°07'0 0.0
2019-Aug-18 11:26N 50°48' W 001°07'0 0.0
2019-Aug-18 10:59N 50°48' W 001°07'0 0.0
2019-Aug-18 10:29N 50°48' W 001°07'0 0.0
2019-Aug-18 09:59N 50°48' W 001°07'0 0.0
2019-Aug-18 09:29N 50°48' W 001°07'0 0.0
2019-Aug-18 08:59N 50°48' W 001°07'0 0.0
2019-Aug-18 08:29N 50°48' W 001°07'0 0.0
2019-Aug-18 07:59N 50°48' W 001°07'0 0.0
2019-Aug-18 06:59N 50°48' W 001°07'0 0.0
2019-Aug-18 06:29N 50°48' W 001°07'0 0.0
2019-Aug-18 05:59N 50°48' W 001°07'0 0.0
2019-Aug-18 05:29N 50°48' W 001°07'0 0.0
2019-Aug-18 04:59N 50°48' W 001°07'0 0.0
2019-Aug-18 04:26N 50°48' W 001°07'0 0.0
2019-Aug-18 03:59N 50°48' W 001°07'0 0.0
2019-Aug-18 03:29N 50°48' W 001°07'0 0.0
2019-Aug-18 02:59N 50°48' W 001°07'0 0.0
2019-Aug-18 02:29N 50°48' W 001°07'0 0.0
2019-Aug-18 01:59N 50°48' W 001°07'0 0.0
2019-Aug-18 01:29N 50°48' W 001°07'0 0.0
2019-Aug-18 00:59N 50°48' W 001°07'0 0.0
2019-Aug-18 00:29N 50°48' W 001°07'0 0.0
2019-Aug-17 23:59N 50°48' W 001°07'0 0.0
2019-Aug-17 23:29N 50°48' W 001°07'0 0.0
2019-Aug-17 22:59N 50°48' W 001°07'0 0.0
2019-Aug-17 22:29N 50°48' W 001°07'0 0.0
2019-Aug-17 21:59N 50°48' W 001°07'0 0.0
2019-Aug-17 21:29N 50°48' W 001°07'0 0.0
2019-Aug-17 20:59N 50°48' W 001°07'0 0.0
2019-Aug-17 20:29N 50°48' W 001°07'0 0.0
2019-Aug-17 19:59N 50°48' W 001°07'0 0.0
2019-Aug-17 19:29N 50°48' W 001°07'0 0.0
2019-Aug-17 18:59N 50°48' W 001°07'0 0.0
2019-Aug-17 18:29N 50°48' W 001°07'0 0.0
2019-Aug-17 17:29N 50°48' W 001°07'0 0.0
2019-Aug-17 16:59N 50°48' W 001°07'0 0.0
2019-Aug-17 16:29N 50°48' W 001°07'0 0.0
2019-Aug-17 15:59N 50°48' W 001°07'0 0.0
2019-Aug-17 15:29N 50°48' W 001°07'0 0.0
2019-Aug-17 14:59N 50°48' W 001°07'0 0.0
2019-Aug-17 14:29N 50°48' W 001°07'0 0.0
2019-Aug-17 13:59N 50°48' W 001°07'0 0.0
2019-Aug-17 13:29N 50°48' W 001°07'0 0.0
2019-Aug-17 12:59N 50°48' W 001°07'0 0.0
2019-Aug-17 12:29N 50°48' W 001°07'0 0.0
2019-Aug-17 11:59N 50°48' W 001°07'0 0.0
2019-Aug-17 11:29N 50°48' W 001°07'0 0.0
2019-Aug-17 10:59N 50°48' W 001°07'0 0.0
2019-Aug-17 10:29N 50°48' W 001°07'0 0.0
2019-Aug-17 09:59N 50°48' W 001°07'0 0.0
2019-Aug-17 09:29N 50°48' W 001°07'0 0.0
2019-Aug-17 08:59N 50°48' W 001°07'0 0.0
2019-Aug-17 08:29N 50°48' W 001°07'0 0.0
2019-Aug-17 07:59N 50°48' W 001°07'0 0.0
2019-Aug-17 07:29N 50°48' W 001°07'0 0.0
2019-Aug-17 06:59N 50°48' W 001°07'0 0.0
2019-Aug-17 06:29N 50°48' W 001°07'0 0.0
2019-Aug-17 05:59N 50°48' W 001°07'0 0.0
2019-Aug-17 05:29N 50°48' W 001°07'0 0.0
2019-Aug-17 04:59N 50°48' W 001°07'0 0.0
2019-Aug-17 04:29N 50°48' W 001°07'0 0.0
2019-Aug-17 03:59N 50°48' W 001°07'0 0.0
2019-Aug-17 03:29N 50°48' W 001°07'0 0.0
2019-Aug-17 02:59N 50°48' W 001°07'0 0.0
2019-Aug-17 02:29N 50°48' W 001°07'0 0.0
2019-Aug-17 01:59N 50°48' W 001°07'0 0.0
2019-Aug-17 01:29N 50°48' W 001°07'0 0.0
2019-Aug-17 00:59N 50°48' W 001°07'0 0.0
2019-Aug-17 00:29N 50°48' W 001°07'0 0.0
2019-Aug-16 23:59N 50°48' W 001°07'0 0.0
2019-Aug-16 23:29N 50°48' W 001°07'0 0.0
2019-Aug-16 22:59N 50°48' W 001°07'0 0.0
2019-Aug-16 22:29N 50°48' W 001°07'0 0.0
2019-Aug-16 21:59N 50°48' W 001°07'0 0.0
2019-Aug-16 21:29N 50°48' W 001°07'0 0.0
2019-Aug-16 20:59N 50°48' W 001°07'0 0.0
2019-Aug-16 20:29N 50°48' W 001°07'0 0.0
2019-Aug-16 19:59N 50°48' W 001°07'0 0.0
2019-Aug-16 19:29N 50°48' W 001°07'0 0.0
2019-Aug-16 18:59N 50°48' W 001°07'0 0.0
2019-Aug-16 18:29N 50°48' W 001°07'0 0.0
2019-Aug-16 17:59N 50°48' W 001°07'0 0.0
2019-Aug-16 17:29N 50°48' W 001°07'0 0.0
2019-Aug-16 16:59N 50°48' W 001°07'0 0.0
2019-Aug-16 16:29N 50°48' W 001°07'0 0.0
2019-Aug-16 15:59N 50°48' W 001°07'0 0.0
2019-Aug-16 15:29N 50°48' W 001°07'0 0.0
2019-Aug-16 14:59N 50°48' W 001°07'0 0.0
2019-Aug-16 14:29N 50°48' W 001°07'0 0.0
2019-Aug-16 13:59N 50°48' W 001°07'0 0.0
2019-Aug-16 13:29N 50°48' W 001°07'0 0.0
2019-Aug-16 12:59N 50°48' W 001°07'0 0.0
2019-Aug-16 12:29N 50°48' W 001°07'0 0.0
2019-Aug-16 11:59N 50°48' W 001°07'0 0.0
2019-Aug-16 11:29N 50°48' W 001°07'0 0.0
2019-Aug-16 10:59N 50°48' W 001°07'0 0.0
2019-Aug-16 10:29N 50°48' W 001°07'0 0.0
2019-Aug-16 09:59N 50°48' W 001°07'0 0.0
2019-Aug-16 09:29N 50°48' W 001°07'0 0.0
2019-Aug-16 08:59N 50°48' W 001°07'0 0.0
2019-Aug-16 08:29N 50°48' W 001°07'0 0.0
2019-Aug-16 07:59N 50°48' W 001°07'0 0.0
2019-Aug-16 07:29N 50°48' W 001°07'0 0.0
2019-Aug-16 06:59N 50°48' W 001°07'0 0.0
2019-Aug-16 06:29N 50°48' W 001°07'0 0.0
2019-Aug-16 05:59N 50°48' W 001°07'0 0.0
2019-Aug-16 05:29N 50°48' W 001°07'0 0.0
2019-Aug-16 04:59N 50°48' W 001°07'0 0.0
2019-Aug-16 04:29N 50°48' W 001°07'0 0.0
2019-Aug-16 03:59N 50°48' W 001°07'0 0.0
2019-Aug-16 03:29N 50°48' W 001°07'0 0.0
2019-Aug-16 02:59N 50°48' W 001°07'0 0.0
2019-Aug-16 02:29N 50°48' W 001°07'0 0.0
2019-Aug-16 01:59N 50°48' W 001°07'0 0.0
2019-Aug-16 01:29N 50°48' W 001°07'0 0.0
2019-Aug-16 00:59N 50°48' W 001°07'0 0.0
2019-Aug-16 00:29N 50°48' W 001°07'0 0.0
2019-Aug-15 23:59N 50°48' W 001°07'0 0.0
2019-Aug-15 23:29N 50°48' W 001°07'0 0.0
2019-Aug-15 22:59N 50°48' W 001°07'0 0.0
2019-Aug-15 22:29N 50°48' W 001°07'0 0.0
2019-Aug-15 21:59N 50°48' W 001°07'0 0.0
2019-Aug-15 21:29N 50°48' W 001°07'0 0.0
2019-Aug-15 20:59N 50°48' W 001°07'0 0.0
2019-Aug-15 20:29N 50°48' W 001°07'0 0.0
2019-Aug-15 19:59N 50°48' W 001°07'0 0.0
2019-Aug-15 19:29N 50°48' W 001°07'0 0.0
2019-Aug-15 18:59N 50°48' W 001°07'0 0.0
2019-Aug-15 18:29N 50°48' W 001°07'0 0.0
2019-Aug-15 17:59N 50°48' W 001°07'0 0.0
2019-Aug-15 17:29N 50°48' W 001°07'0 0.0
2019-Aug-15 16:59N 50°48' W 001°07'0 0.0
2019-Aug-15 16:29N 50°48' W 001°07'0 0.0
2019-Aug-15 15:59N 50°48' W 001°07'0 0.0
2019-Aug-15 15:29N 50°48' W 001°07'0 0.0
2019-Aug-15 14:59N 50°48' W 001°07'0 0.0
2019-Aug-15 14:29N 50°48' W 001°07'0 0.0
2019-Aug-15 13:59N 50°48' W 001°07'0 0.0
2019-Aug-15 13:29N 50°48' W 001°07'0 0.0
2019-Aug-15 12:59N 50°48' W 001°07'0 0.0
2019-Aug-15 12:29N 50°48' W 001°07'0 0.0
2019-Aug-15 11:59N 50°48' W 001°07'0 0.0
2019-Aug-15 11:29N 50°48' W 001°07'0 0.0
2019-Aug-15 10:59N 50°48' W 001°07'0 0.0
2019-Aug-15 10:29N 50°48' W 001°07'0 0.0
2019-Aug-15 09:59N 50°48' W 001°07'0 0.0
2019-Aug-15 09:29N 50°48' W 001°07'0 0.0
2019-Aug-15 08:59N 50°48' W 001°07'0 0.0
2019-Aug-15 08:29N 50°48' W 001°07'0 0.0
2019-Aug-15 07:59N 50°48' W 001°07'0 0.0
2019-Aug-15 07:29N 50°48' W 001°07'0 0.0
2019-Aug-15 06:59N 50°48' W 001°07'0 0.0
2019-Aug-15 06:29N 50°48' W 001°07'0 0.0
2019-Aug-15 05:59N 50°48' W 001°07'0 0.0
2019-Aug-15 05:29N 50°48' W 001°07'0 0.0
2019-Aug-15 04:59N 50°48' W 001°07'0 0.0
2019-Aug-15 04:29N 50°48' W 001°07'0 0.0
2019-Aug-15 03:59N 50°48' W 001°07'0 0.0
2019-Aug-15 03:29N 50°48' W 001°07'0 0.0
2019-Aug-15 02:59N 50°48' W 001°07'0 0.0
2019-Aug-15 02:29N 50°48' W 001°07'0 0.0
2019-Aug-15 01:59N 50°48' W 001°07'0 0.0
2019-Aug-15 01:29N 50°48' W 001°07'0 0.0
2019-Aug-15 00:59N 50°48' W 001°07'0 0.0
2019-Aug-15 00:29N 50°48' W 001°07'0 0.0
2019-Aug-14 23:59N 50°48' W 001°07'0 0.0
2019-Aug-14 23:29N 50°48' W 001°07'0 0.0
2019-Aug-14 22:59N 50°48' W 001°07'0 0.0
2019-Aug-14 22:29N 50°48' W 001°07'0 0.0
2019-Aug-14 21:59N 50°48' W 001°07'0 0.0
2019-Aug-14 21:29N 50°48' W 001°07'0 0.0
2019-Aug-14 20:59N 50°48' W 001°07'0 0.0
2019-Aug-14 20:29N 50°48' W 001°07'0 0.0
2019-Aug-14 19:59N 50°48' W 001°07'0 0.0
2019-Aug-14 19:29N 50°48' W 001°07'0 0.0
2019-Aug-14 18:59N 50°48' W 001°07'0 0.0
2019-Aug-14 18:29N 50°48' W 001°07'0 0.0
2019-Aug-14 17:59N 50°48' W 001°07'0 0.0
2019-Aug-14 17:29N 50°48' W 001°07'0 0.0
2019-Aug-14 16:59N 50°48' W 001°07'0 0.0
2019-Aug-14 16:29N 50°48' W 001°07'0 0.0
2019-Aug-14 15:59N 50°48' W 001°07'0 0.0
2019-Aug-14 15:29N 50°48' W 001°07'0 0.0
2019-Aug-14 14:59N 50°48' W 001°07'0 0.0
2019-Aug-14 14:29N 50°48' W 001°07'0 0.0
2019-Aug-14 13:59N 50°48' W 001°07'0 0.0
2019-Aug-14 13:29N 50°48' W 001°07'0 0.0
2019-Aug-14 12:59N 50°48' W 001°07'0 0.0
2019-Aug-14 12:29N 50°48' W 001°07'0 0.0
2019-Aug-14 11:59N 50°48' W 001°07'0 0.0
2019-Aug-14 11:29N 50°48' W 001°07'0 0.0
2019-Aug-14 10:59N 50°48' W 001°07'0 0.0
2019-Aug-14 10:29N 50°48' W 001°07'0 0.0
2019-Aug-14 09:59N 50°48' W 001°07'0 0.0
2019-Aug-14 09:29N 50°48' W 001°07'0 0.0
2019-Aug-14 08:59N 50°48' W 001°07'0 0.0
2019-Aug-14 08:29N 50°48' W 001°07'0 0.0
2019-Aug-14 07:59N 50°48' W 001°07'0 0.0
2019-Aug-14 07:29N 50°48' W 001°07'0 0.0
2019-Aug-14 06:59N 50°48' W 001°07'0 0.0
2019-Aug-14 06:29N 50°48' W 001°07'0 0.0
2019-Aug-14 05:59N 50°48' W 001°07'0 0.0
2019-Aug-14 05:29N 50°48' W 001°07'0 0.0
2019-Aug-14 04:59N 50°48' W 001°07'0 0.0
2019-Aug-14 04:29N 50°48' W 001°07'0 0.0
2019-Aug-14 03:59N 50°48' W 001°07'0 0.0
2019-Aug-14 03:29N 50°48' W 001°07'0 0.0
2019-Aug-14 02:59N 50°48' W 001°07'0 0.0
2019-Aug-14 02:29N 50°48' W 001°07'0 0.0
2019-Aug-14 01:59N 50°48' W 001°07'0 0.0
2019-Aug-14 01:29N 50°48' W 001°07'0 0.0
2019-Aug-14 00:59N 50°48' W 001°07'0 0.0
2019-Aug-14 00:29N 50°48' W 001°07'0 0.0
2019-Aug-13 23:59N 50°48' W 001°07'0 0.0
2019-Aug-13 23:29N 50°48' W 001°07'0 0.0
2019-Aug-13 22:59N 50°48' W 001°07'0 0.0
2019-Aug-13 22:29N 50°48' W 001°07'0 0.0
2019-Aug-13 21:59N 50°48' W 001°07'0 0.0
2019-Aug-13 21:29N 50°48' W 001°07'0 0.0
2019-Aug-13 20:59N 50°48' W 001°07'0 0.0
2019-Aug-13 20:29N 50°48' W 001°07'0 0.0
2019-Aug-13 19:59N 50°48' W 001°07'0 0.0
2019-Aug-13 19:29N 50°48' W 001°07'0 0.0
2019-Aug-13 18:59N 50°48' W 001°07'0 0.0
2019-Aug-13 18:29N 50°48' W 001°07'0 0.0
2019-Aug-13 17:59N 50°48' W 001°07'0 0.0
2019-Aug-13 17:29N 50°48' W 001°07'0 0.0
2019-Aug-13 16:59N 50°48' W 001°07'0 0.0
2019-Aug-13 16:29N 50°48' W 001°07'0 0.0
2019-Aug-13 15:59N 50°48' W 001°07'0 0.0
2019-Aug-13 15:29N 50°48' W 001°07'0 0.0
2019-Aug-13 14:59N 50°48' W 001°07'0 0.0
2019-Aug-13 14:29N 50°48' W 001°07'0 0.0
2019-Aug-13 13:59N 50°48' W 001°07'0 0.0
2019-Aug-13 13:29N 50°48' W 001°07'0 0.0
2019-Aug-13 12:59N 50°48' W 001°07'0 0.0
2019-Aug-13 12:29N 50°48' W 001°07'0 0.0
2019-Aug-13 11:59N 50°48' W 001°07'0 0.0
2019-Aug-13 11:29N 50°48' W 001°07'0 0.0
2019-Aug-13 10:59N 50°48' W 001°07'0 0.0
2019-Aug-13 10:29N 50°48' W 001°07'0 0.0
2019-Aug-13 09:59N 50°48' W 001°07'0 0.0
2019-Aug-13 09:29N 50°48' W 001°07'0 0.0
2019-Aug-13 08:59N 50°48' W 001°07'0 0.0
2019-Aug-13 08:29N 50°48' W 001°07'0 0.0
2019-Aug-13 07:59N 50°48' W 001°07'0 0.0
2019-Aug-13 07:29N 50°48' W 001°07'0 0.0
2019-Aug-13 06:59N 50°48' W 001°07'0 0.0
2019-Aug-13 06:29N 50°48' W 001°07'0 0.0
2019-Aug-13 05:59N 50°48' W 001°07'0 0.0
2019-Aug-13 05:29N 50°48' W 001°07'0 0.0
2019-Aug-13 04:59N 50°48' W 001°07'0 0.0
2019-Aug-13 04:29N 50°48' W 001°07'0 0.0
2019-Aug-13 03:59N 50°48' W 001°07'0 0.0
2019-Aug-13 03:29N 50°48' W 001°07'0 0.0
2019-Aug-13 02:59N 50°48' W 001°07'0 0.0
2019-Aug-13 02:29N 50°48' W 001°07'0 0.0
2019-Aug-13 01:29N 50°48' W 001°07'0 0.0
2019-Aug-13 00:59N 50°48' W 001°07'0 0.0
2019-Aug-13 00:29N 50°48' W 001°07'0 0.0
2019-Aug-12 23:59N 50°48' W 001°07'0 0.0
2019-Aug-12 23:29N 50°48' W 001°07'0 0.0
2019-Aug-12 22:59N 50°48' W 001°07'0 0.0
2019-Aug-12 22:29N 50°48' W 001°07'0 0.0
2019-Aug-12 21:59N 50°48' W 001°07'0 0.0
2019-Aug-12 21:29N 50°48' W 001°07'0 0.0
2019-Aug-12 20:59N 50°48' W 001°07'0 0.0
2019-Aug-12 20:29N 50°48' W 001°07'0 0.0
2019-Aug-12 19:59N 50°48' W 001°07'0 0.0
2019-Aug-12 19:29N 50°48' W 001°07'0 0.0
2019-Aug-12 18:59N 50°48' W 001°07'0 0.0
2019-Aug-12 18:29N 50°48' W 001°07'0 0.0
2019-Aug-12 17:59N 50°48' W 001°07'0 0.0
2019-Aug-12 17:29N 50°48' W 001°07'0 0.0
2019-Aug-12 16:59N 50°48' W 001°07'0 0.0
2019-Aug-12 16:29N 50°48' W 001°07'0 0.0
2019-Aug-12 15:59N 50°48' W 001°07'0 0.0
2019-Aug-12 15:29N 50°48' W 001°07'0 0.0
2019-Aug-12 14:59N 50°48' W 001°07'0 0.0
2019-Aug-12 14:29N 50°48' W 001°07'0 0.0
2019-Aug-12 13:59N 50°48' W 001°07'0 0.0
2019-Aug-12 13:29N 50°48' W 001°07'0 0.0
2019-Aug-12 12:59N 50°48' W 001°07'0 0.0
2019-Aug-12 12:29N 50°48' W 001°07'0 0.0
2019-Aug-12 11:59N 50°48' W 001°07'0 0.0
2019-Aug-12 11:29N 50°48' W 001°07'0 0.0
2019-Aug-12 10:59N 50°48' W 001°07'0 0.0
2019-Aug-12 10:29N 50°48' W 001°07'0 0.0
2019-Aug-12 09:59N 50°48' W 001°07'  

Dump ship's entire track history